KFSD 220311Z 2203/2224 31010KT P6SM FEW200
FM220600 29012KT P6SM SCT250
FM221800 25010G16KT P6SM SCT040 SCT150
From batch tds/tafs/production/2024/5/22/h03_m20_tafs.cache.xml.gz
Issued (about 2 months ago)
Forecasts
2203/2206 31010KT 6+SM FEW20000

---
fcst_time_to: '2024-05-22T06:00:00Z'
sky_condition:
- sky_cover: FEW
  cloud_base_ft_agl: '20000'
wind_speed_kt: '10'
fcst_time_from: '2024-05-22T03:00:00Z'
wind_dir_degrees: '310'
visibility_statute_mi: 6+

FM220600 29012KT 6+SM SCT25000

---
fcst_time_to: '2024-05-22T18:00:00Z'
sky_condition:
- sky_cover: SCT
  cloud_base_ft_agl: '25000'
wind_speed_kt: '12'
fcst_time_from: '2024-05-22T06:00:00Z'
change_indicator: FM
wind_dir_degrees: '290'
visibility_statute_mi: 6+

FM221800 25010G16KT 6+SM SCT4000 SCT15000

---
fcst_time_to: '2024-05-23T00:00:00Z'
wind_gust_kt: '16'
sky_condition:
- - sky_cover: SCT
    cloud_base_ft_agl: '4000'
- - sky_cover: SCT
    cloud_base_ft_agl: '15000'
wind_speed_kt: '10'
fcst_time_from: '2024-05-22T18:00:00Z'
change_indicator: FM
wind_dir_degrees: '250'
visibility_statute_mi: 6+

talk